Eureka, Alaska
Current Conditions -  °F | °C
As of 2:36 AM on Tuesday 21 Oct 2014 (Local Time) from PAZK Reporting Station
Overcast Overcast  
Wind Chill: 16°   Ceiling: 200
Heat Index: 16°   Visibility: 0.25mi
Dew Point: 14°   Wind: 3mph
Humidity: 93%   Direction: 40°NE
Pressure: 29.22"   Gusts: NA
Location:  61.94°N, 147.17°W
Report Text: PAZK 211036Z AUTO 04003KT 1/4SM OVC002 M09/M10 A2922 RMK AO1
Loading
Personal Weather Stations






























Interactive Weather Map
Tropical Storm Tracking
New forecast layout! Learn more

10-Day Weather Forecast

Advertisements
Track Severe Weather on mobile